createdAt,value
2022-08-30T00:01:56.357Z,60.75
2022-08-30T00:04:30.429Z,60.89
2022-08-30T00:06:58.111Z,60.54
2022-08-30T00:09:25.747Z,60.72
2022-08-30T00:11:53.366Z,60.75
2022-08-30T00:14:21.486Z,60.85
2022-08-30T00:16:50.099Z,60.92
2022-08-30T00:19:18.192Z,61.23
2022-08-30T00:21:49.516Z,62.26
2022-08-30T00:24:17.245Z,62.28
2022-08-30T00:26:45.124Z,62.10
2022-08-30T00:29:13.058Z,62.04
2022-08-30T00:31:40.786Z,61.90
2022-08-30T00:34:08.498Z,61.68
2022-08-30T00:36:39.336Z,61.45
2022-08-30T00:39:08.357Z,60.97
2022-08-30T00:41:37.284Z,61.06
2022-08-30T00:44:05.354Z,60.64
2022-08-30T00:46:33.820Z,60.59
2022-08-30T00:51:29.084Z,60.63
2022-08-30T00:53:56.866Z,60.73
2022-08-30T00:56:28.721Z,60.86
2022-08-30T00:58:57.162Z,60.66
2022-08-30T01:01:24.968Z,60.96
2022-08-30T01:03:55.542Z,61.13
2022-08-30T01:06:23.295Z,61.61
2022-08-30T01:08:51.515Z,63.64
2022-08-30T01:11:24.243Z,62.12
2022-08-30T01:13:54.004Z,62.32
2022-08-30T01:16:22.306Z,63.69
2022-08-30T01:18:50.600Z,63.79
2022-08-30T01:21:19.457Z,63.09
2022-08-30T01:23:50.387Z,62.34
2022-08-30T01:26:22.033Z,62.30
2022-08-30T01:28:52.998Z,62.41
2022-08-30T01:31:20.817Z,62.19
2022-08-30T01:33:51.100Z,62.65
2022-08-30T01:36:21.798Z,62.42
2022-08-30T01:38:52.970Z,62.58
2022-08-30T01:41:21.526Z,62.73
2022-08-30T01:43:49.902Z,62.82
2022-08-30T01:46:19.844Z,62.91
2022-08-30T01:48:53.069Z,63.40
2022-08-30T01:51:22.556Z,65.92
2022-08-30T01:53:52.052Z,66.07
2022-08-30T01:56:20.724Z,66.29
2022-08-30T01:58:48.523Z,64.94
2022-08-30T02:01:17.170Z,65.41
2022-08-30T02:03:45.508Z,65.11
2022-08-30T02:06:13.875Z,65.65
2022-08-30T02:08:48.735Z,65.54
2022-08-30T02:11:20.217Z,65.38
2022-08-30T02:13:49.385Z,64.20
2022-08-30T02:16:17.887Z,65.60
2022-08-30T02:18:48.194Z,64.85
2022-08-30T02:21:16.227Z,64.31
2022-08-30T02:23:44.069Z,65.67
2022-08-30T02:26:12.189Z,67.36
2022-08-30T02:28:42.928Z,67.38
2022-08-30T02:31:19.343Z,67.87
2022-08-30T02:33:48.414Z,67.82
2022-08-30T02:36:16.442Z,67.38
2022-08-30T02:38:44.564Z,67.26
2022-08-30T02:41:14.037Z,66.32
2022-08-30T02:43:43.053Z,66.93
2022-08-30T02:46:13.625Z,66.71
2022-08-30T02:48:41.293Z,66.14
2022-08-30T02:51:11.384Z,67.00
2022-08-30T02:53:39.354Z,67.92
2022-08-30T02:56:07.118Z,68.03
2022-08-30T02:58:37.740Z,67.92
2022-08-30T03:01:07.767Z,67.85
2022-08-30T03:03:35.944Z,67.29
2022-08-30T03:06:05.630Z,66.63
2022-08-30T03:08:38.117Z,65.86
2022-08-30T03:11:09.195Z,67.03
2022-08-30T03:13:37.953Z,66.62
2022-08-30T03:16:10.399Z,67.36
2022-08-30T03:18:38.171Z,67.01
2022-08-30T03:21:10.221Z,67.15
2022-08-30T03:23:38.012Z,67.10
2022-08-30T03:26:06.467Z,67.14
2022-08-30T03:28:34.144Z,66.57
2022-08-30T03:31:02.192Z,67.14
2022-08-30T03:33:31.719Z,66.69
2022-08-30T03:35:59.784Z,66.21
2022-08-30T03:38:28.418Z,65.68
2022-08-30T03:40:56.046Z,65.37
2022-08-30T03:43:26.533Z,66.59
2022-08-30T03:45:54.203Z,67.87
2022-08-30T03:48:26.132Z,68.67
2022-08-30T03:50:55.230Z,68.49
2022-08-30T03:53:28.483Z,69.29
2022-08-30T03:55:57.350Z,68.90
2022-08-30T03:58:27.723Z,68.98
2022-08-30T04:00:55.635Z,68.96
2022-08-30T04:03:26.071Z,69.14
2022-08-30T04:05:55.142Z,68.48
2022-08-30T04:08:22.754Z,69.35
2022-08-30T04:10:51.047Z,69.34
2022-08-30T04:13:19.495Z,69.99
2022-08-30T04:15:49.984Z,70.09
2022-08-30T04:18:18.011Z,71.00
2022-08-30T04:20:45.715Z,70.99
2022-08-30T04:23:15.319Z,71.21
2022-08-30T04:25:44.013Z,70.37
2022-08-30T04:28:12.164Z,70.65
2022-08-30T04:30:40.037Z,71.17
2022-08-30T04:33:09.937Z,70.31
2022-08-30T04:35:38.716Z,69.07
2022-08-30T04:38:06.578Z,69.08
2022-08-30T04:40:36.915Z,68.38
2022-08-30T04:43:07.659Z,68.30
2022-08-30T04:45:35.492Z,70.19
2022-08-30T04:48:03.387Z,71.36
2022-08-30T04:50:31.181Z,70.71
2022-08-30T04:52:58.775Z,72.17
2022-08-30T04:55:26.877Z,71.81
2022-08-30T04:57:56.591Z,72.38
2022-08-30T05:00:25.476Z,72.35
2022-08-30T05:02:53.243Z,70.98
2022-08-30T05:05:38.597Z,71.37
2022-08-30T05:08:10.716Z,71.49
2022-08-30T05:10:39.208Z,71.22
2022-08-30T05:13:08.744Z,71.68
2022-08-30T05:15:39.476Z,72.21
2022-08-30T05:18:07.955Z,71.77
2022-08-30T05:20:39.985Z,71.48
2022-08-30T05:23:07.718Z,70.62
2022-08-30T05:25:37.377Z,70.48
2022-08-30T05:28:07.296Z,70.63
2022-08-30T05:30:38.461Z,69.85
2022-08-30T05:33:07.743Z,69.49
2022-08-30T05:35:35.492Z,69.56
2022-08-30T05:38:03.414Z,70.17
2022-08-30T05:40:32.023Z,69.74
2022-08-30T05:43:00.611Z,68.12
2022-08-30T05:45:29.382Z,67.89
2022-08-30T05:47:59.174Z,68.24
2022-08-30T05:50:27.115Z,66.88
2022-08-30T05:52:59.849Z,67.50
2022-08-30T05:55:27.962Z,67.89
2022-08-30T05:57:58.364Z,67.63
2022-08-30T06:00:29.327Z,68.90
2022-08-30T06:02:58.877Z,68.70
2022-08-30T06:05:26.578Z,68.32
2022-08-30T06:07:58.205Z,69.61
2022-08-30T06:10:26.170Z,69.32
2022-08-30T06:12:53.777Z,70.26
2022-08-30T06:15:21.520Z,70.27
2022-08-30T06:17:49.538Z,69.03
2022-08-30T06:20:20.293Z,67.86
2022-08-30T06:22:48.013Z,66.59
2022-08-30T06:25:19.114Z,67.50
2022-08-30T06:27:56.699Z,65.64
2022-08-30T06:30:33.516Z,64.63
2022-08-30T06:33:02.679Z,64.58
2022-08-30T06:35:38.245Z,64.86
2022-08-30T06:38:09.953Z,65.16
2022-08-30T06:40:45.819Z,64.74
2022-08-30T06:43:13.775Z,64.22
2022-08-30T06:45:41.724Z,63.76
2022-08-30T06:48:09.534Z,63.83
2022-08-30T06:50:42.183Z,64.69
2022-08-30T06:53:09.905Z,64.21
2022-08-30T06:55:40.074Z,63.29
2022-08-30T06:58:07.845Z,63.48
2022-08-30T07:00:35.637Z,63.74
2022-08-30T07:03:04.771Z,64.48
2022-08-30T07:05:36.467Z,64.31
2022-08-30T07:08:09.312Z,64.30
2022-08-30T07:10:40.901Z,63.82
2022-08-30T07:13:11.654Z,64.01
2022-08-30T07:15:41.275Z,63.05
2022-08-30T07:18:26.211Z,61.99
2022-08-30T07:20:54.538Z,61.39
2022-08-30T07:23:24.166Z,62.36
2022-08-30T07:25:51.941Z,61.81
2022-08-30T07:28:21.795Z,62.25
2022-08-30T07:30:49.460Z,61.60
2022-08-30T07:33:17.342Z,61.72
2022-08-30T07:35:48.708Z,61.78
2022-08-30T07:38:20.005Z,62.37
2022-08-30T07:40:49.674Z,60.94
2022-08-30T07:43:19.416Z,60.43
2022-08-30T07:45:47.681Z,60.84
2022-08-30T07:48:15.980Z,61.68
2022-08-30T07:50:53.732Z,61.47
2022-08-30T07:53:25.079Z,61.28
2022-08-30T07:55:54.221Z,61.12
2022-08-30T07:58:21.897Z,60.98
2022-08-30T08:00:50.050Z,60.60
2022-08-30T08:03:17.797Z,60.52
2022-08-30T08:05:46.427Z,60.77
2022-08-30T08:08:14.500Z,61.31
2022-08-30T08:10:45.594Z,60.75
2022-08-30T08:13:14.651Z,59.98
2022-08-30T08:15:45.512Z,60.53
2022-08-30T08:18:13.611Z,60.70
2022-08-30T08:20:43.737Z,60.91
2022-08-30T08:23:14.906Z,61.35
2022-08-30T08:25:42.950Z,61.61
2022-08-30T08:28:10.574Z,61.10
2022-08-30T08:30:41.595Z,60.71
2022-08-30T08:33:13.224Z,60.48
2022-08-30T08:35:40.918Z,60.36
2022-08-30T08:38:10.396Z,59.73
2022-08-30T08:40:42.225Z,61.78
2022-08-30T08:43:13.504Z,61.95
2022-08-30T08:45:47.386Z,61.42
2022-08-30T08:48:18.349Z,61.60
2022-08-30T08:51:02.975Z,60.95
2022-08-30T08:53:47.193Z,61.00
2022-08-30T08:56:17.079Z,60.61
2022-08-30T08:58:46.066Z,60.44
2022-08-30T09:01:16.447Z,59.20
2022-08-30T09:03:44.704Z,59.53
2022-08-30T09:06:17.514Z,59.73
2022-08-30T09:08:45.539Z,59.32
2022-08-30T09:11:16.796Z,59.37
2022-08-30T09:13:56.091Z,58.02
2022-08-30T09:16:44.774Z,57.93
2022-08-30T09:19:14.582Z,58.07
2022-08-30T09:21:42.248Z,57.98
2022-08-30T09:24:12.169Z,57.88
2022-08-30T09:26:44.185Z,57.87
2022-08-30T09:29:17.040Z,57.86
2022-08-30T09:31:47.713Z,57.65
2022-08-30T09:34:20.312Z,56.73
2022-08-30T09:36:49.968Z,56.65
2022-08-30T09:39:20.257Z,56.44
2022-08-30T09:41:50.830Z,55.88
2022-08-30T09:44:24.275Z,57.08
2022-08-30T09:46:53.481Z,55.50
2022-08-30T09:49:43.266Z,55.83
2022-08-30T09:52:19.921Z,55.46
2022-08-30T09:54:50.349Z,55.44
2022-08-30T09:57:19.726Z,55.18
2022-08-30T10:00:04.240Z,55.04
2022-08-30T10:02:38.669Z,54.22
2022-08-30T10:05:12.803Z,54.08
2022-08-30T10:07:42.846Z,55.68
2022-08-30T10:10:12.955Z,55.73
2022-08-30T10:12:42.298Z,55.05
2022-08-30T10:15:11.679Z,54.00
2022-08-30T10:17:43.547Z,53.08
2022-08-30T10:20:37.667Z,53.03
2022-08-30T10:23:10.512Z,52.34
2022-08-30T10:25:41.031Z,52.76
2022-08-30T10:28:11.614Z,52.52
2022-08-30T10:30:41.962Z,51.93
2022-08-30T10:33:13.759Z,51.47
2022-08-30T10:35:43.933Z,51.38
2022-08-30T10:38:16.716Z,50.35
2022-08-30T10:41:03.465Z,51.48
2022-08-30T10:43:33.630Z,52.14
2022-08-30T10:46:05.131Z,50.44
2022-08-30T10:48:34.427Z,49.62
2022-08-30T10:51:04.307Z,49.30
2022-08-30T10:53:34.535Z,50.01
2022-08-30T10:56:07.983Z,49.38
2022-08-30T10:58:38.937Z,49.91
2022-08-30T11:01:19.337Z,49.18
2022-08-30T11:03:59.414Z,48.98
2022-08-30T11:06:29.360Z,49.57
2022-08-30T11:09:13.917Z,49.73
2022-08-30T11:11:45.229Z,49.38
2022-08-30T11:14:15.878Z,49.93
2022-08-30T11:16:48.351Z,48.95
2022-08-30T11:19:20.640Z,48.22
2022-08-30T11:21:49.650Z,48.53
2022-08-30T11:24:23.177Z,49.34
2022-08-30T11:26:52.936Z,48.97
2022-08-30T11:29:29.860Z,48.42
2022-08-30T11:31:59.149Z,48.83
2022-08-30T11:34:43.874Z,48.61
2022-08-30T11:37:30.560Z,48.01
2022-08-30T11:40:03.944Z,47.77
2022-08-30T11:42:33.638Z,48.17
2022-08-30T11:45:21.338Z,47.51
2022-08-30T11:47:56.575Z,47.39
2022-08-30T11:50:28.615Z,47.28
2022-08-30T11:52:57.465Z,47.22
2022-08-30T11:55:38.224Z,47.60
2022-08-30T11:58:12.398Z,48.48
2022-08-30T12:00:43.676Z,49.35
2022-08-30T12:03:28.472Z,49.32
2022-08-30T12:05:59.600Z,49.14
2022-08-30T12:09:02.480Z,48.47
2022-08-30T12:12:06.991Z,47.57
2022-08-30T12:14:54.575Z,46.53
2022-08-30T12:17:44.130Z,47.00
2022-08-30T12:20:25.151Z,47.22
2022-08-30T12:22:54.218Z,46.45
2022-08-30T12:25:32.045Z,46.81
2022-08-30T12:28:13.546Z,46.38
2022-08-30T12:30:46.941Z,45.52
2022-08-30T12:33:16.264Z,45.94
2022-08-30T12:35:53.617Z,47.43
2022-08-30T12:38:27.584Z,45.25
2022-08-30T12:40:57.699Z,45.08
2022-08-30T12:43:28.421Z,45.17
2022-08-30T12:46:10.766Z,45.31
2022-08-30T12:48:44.545Z,44.58
2022-08-30T12:51:12.746Z,45.35
2022-08-30T12:53:42.159Z,45.69
2022-08-30T12:56:13.399Z,45.72
2022-08-30T12:58:44.309Z,45.11
2022-08-30T13:01:19.730Z,45.39
2022-08-30T13:04:06.600Z,45.15
2022-08-30T13:06:42.339Z,45.18
2022-08-30T13:09:10.421Z,44.42
2022-08-30T13:11:40.537Z,44.39
2022-08-30T13:14:24.229Z,45.63
2022-08-30T13:17:00.756Z,44.92
2022-08-30T13:19:42.363Z,45.76
2022-08-30T13:22:28.392Z,45.72
2022-08-30T13:24:59.859Z,44.36
2022-08-30T13:27:27.823Z,45.09
2022-08-30T13:30:01.243Z,45.47
2022-08-30T13:32:30.685Z,44.93
2022-08-30T13:34:58.351Z,43.73
2022-08-30T13:37:47.619Z,43.95
2022-08-30T13:40:17.539Z,44.02
2022-08-30T13:42:46.748Z,43.95
2022-08-30T13:48:07.788Z,44.89
2022-08-30T13:50:41.186Z,44.15
2022-08-30T13:53:10.454Z,44.39
2022-08-30T13:55:39.525Z,43.86
2022-08-30T13:58:08.501Z,44.18
2022-08-30T14:00:39.695Z,43.77
2022-08-30T14:03:10.251Z,44.13
2022-08-30T14:08:46.417Z,42.53
2022-08-30T14:11:18.587Z,42.45
2022-08-30T14:16:35.282Z,43.30
2022-08-30T14:19:09.830Z,43.42
2022-08-30T14:21:40.114Z,42.32
2022-08-30T14:24:08.436Z,43.48
2022-08-30T14:26:37.083Z,43.33
2022-08-30T14:29:05.384Z,43.04
2022-08-30T14:31:38.210Z,42.39
2022-08-30T14:34:07.549Z,42.10
2022-08-30T14:36:35.645Z,41.49
2022-08-30T14:39:08.921Z,42.43
2022-08-30T14:41:41.299Z,43.75
2022-08-30T14:44:11.132Z,44.88
2022-08-30T14:46:38.804Z,44.66
2022-08-30T14:49:11.262Z,44.68
2022-08-30T14:51:39.077Z,43.84
2022-08-30T14:54:06.725Z,43.86
2022-08-30T14:56:35.492Z,44.03
2022-08-30T14:59:07.861Z,44.02
2022-08-30T15:01:37.762Z,43.82
2022-08-30T15:04:07.223Z,42.49
2022-08-30T15:06:38.104Z,43.00
2022-08-30T15:09:06.385Z,42.57
2022-08-30T15:11:37.990Z,42.75
2022-08-30T15:14:09.412Z,42.17
2022-08-30T15:16:41.878Z,41.77
2022-08-30T15:19:11.066Z,42.18
2022-08-30T15:21:41.709Z,42.14
2022-08-30T15:24:11.409Z,42.14
2022-08-30T15:26:41.824Z,43.32
2022-08-30T15:29:10.595Z,42.77
2022-08-30T15:31:38.556Z,42.46
2022-08-30T15:34:06.217Z,43.47
2022-08-30T15:36:34.932Z,43.59
2022-08-30T15:39:06.199Z,43.31
2022-08-30T15:41:35.449Z,44.03
2022-08-30T15:44:06.650Z,45.72
2022-08-30T15:46:36.994Z,46.15
2022-08-30T15:49:05.630Z,46.39
2022-08-30T15:51:41.109Z,46.31
2022-08-30T15:54:11.848Z,46.28
2022-08-30T15:56:40.174Z,47.21
2022-08-30T15:59:15.284Z,46.76
2022-08-30T16:01:43.175Z,47.21
2022-08-30T16:04:13.633Z,47.44
2022-08-30T16:06:41.730Z,46.90
2022-08-30T16:09:11.096Z,46.92
2022-08-30T16:11:38.964Z,46.61
2022-08-30T16:14:07.958Z,46.74
2022-08-30T16:16:40.047Z,46.77
2022-08-30T16:19:09.413Z,46.69
2022-08-30T16:21:37.994Z,46.35
2022-08-30T16:24:06.712Z,46.49
2022-08-30T16:26:36.961Z,46.35
2022-08-30T16:29:05.382Z,47.43
2022-08-30T16:31:37.644Z,47.63
2022-08-30T16:34:07.834Z,48.72
2022-08-30T16:36:43.921Z,49.26
2022-08-30T16:39:13.888Z,49.34
2022-08-30T16:41:48.388Z,48.77
2022-08-30T16:44:17.814Z,48.26
2022-08-30T16:46:53.641Z,47.94
2022-08-30T16:49:22.491Z,48.34
2022-08-30T16:51:51.174Z,48.75
2022-08-30T16:54:20.287Z,48.83
2022-08-30T16:56:49.893Z,49.24
2022-08-30T16:59:18.948Z,49.70
2022-08-30T17:01:49.538Z,50.30
2022-08-30T17:04:18.831Z,50.23
2022-08-30T17:06:49.962Z,50.55
2022-08-30T17:09:18.420Z,50.78
2022-08-30T17:11:46.573Z,51.32
2022-08-30T17:14:17.811Z,51.21
2022-08-30T17:16:50.746Z,50.89
2022-08-30T17:19:18.761Z,50.48
2022-08-30T17:21:54.758Z,51.00
2022-08-30T17:24:22.927Z,50.71
2022-08-30T17:26:52.652Z,51.03
2022-08-30T17:29:22.399Z,50.98
2022-08-30T17:31:50.952Z,51.37
2022-08-30T17:34:21.151Z,51.21
2022-08-30T17:36:49.933Z,51.20
2022-08-30T17:39:17.722Z,51.49
2022-08-30T17:41:50.472Z,51.62
2022-08-30T17:44:21.910Z,52.09
2022-08-30T17:46:55.234Z,52.50
2022-08-30T17:49:23.317Z,52.23
2022-08-30T17:51:55.629Z,52.39
2022-08-30T17:54:28.137Z,52.21
2022-08-30T17:56:59.046Z,52.66
2022-08-30T17:59:26.865Z,53.16
2022-08-30T18:02:01.083Z,52.84
2022-08-30T18:04:28.841Z,53.51
2022-08-30T18:06:56.505Z,53.31
2022-08-30T18:09:33.191Z,53.38
2022-08-30T18:12:02.006Z,53.38
2022-08-30T18:14:32.182Z,53.47
2022-08-30T18:17:01.190Z,53.33
2022-08-30T18:19:32.082Z,53.65
2022-08-30T18:22:00.021Z,53.83
2022-08-30T18:24:31.193Z,53.66
2022-08-30T18:26:59.341Z,53.81
2022-08-30T18:29:31.398Z,53.76
2022-08-30T18:32:20.307Z,53.83
2022-08-30T18:34:51.472Z,53.81
2022-08-30T18:37:19.381Z,53.47
2022-08-30T18:39:53.401Z,53.53
2022-08-30T18:42:21.232Z,53.20
2022-08-30T18:44:49.327Z,53.36
2022-08-30T18:47:23.023Z,53.81
2022-08-30T18:49:53.516Z,53.33
2022-08-30T18:52:21.921Z,53.79
2022-08-30T18:54:53.040Z,53.43
2022-08-30T18:57:23.605Z,53.14
2022-08-30T18:59:54.425Z,52.92
2022-08-30T19:02:22.622Z,52.92
2022-08-30T19:05:04.857Z,53.23
2022-08-30T19:07:37.632Z,53.56
2022-08-30T19:10:13.481Z,53.23
2022-08-30T19:12:41.378Z,52.63
2022-08-30T19:15:10.880Z,52.57
2022-08-30T19:17:39.865Z,52.99
2022-08-30T19:20:19.319Z,52.97
2022-08-30T19:23:09.223Z,53.09
2022-08-30T19:25:34.936Z,53.19
2022-08-30T19:28:02.950Z,52.93
2022-08-30T19:30:33.606Z,52.69
2022-08-30T19:33:04.137Z,52.89
2022-08-30T19:35:35.129Z,52.45
2022-08-30T19:38:03.201Z,52.75
2022-08-30T19:40:33.196Z,52.38
2022-08-30T19:43:05.289Z,52.47
2022-08-30T19:48:22.423Z,52.69
2022-08-30T19:50:54.435Z,52.20
2022-08-30T19:53:22.664Z,52.57
2022-08-30T19:55:50.647Z,52.27
2022-08-30T19:58:21.112Z,52.36
2022-08-30T20:00:55.963Z,52.17
2022-08-30T20:03:28.810Z,52.25
2022-08-30T20:06:00.305Z,52.29
2022-08-30T20:08:29.947Z,51.91
2022-08-30T20:10:58.601Z,52.53
2022-08-30T20:13:26.853Z,52.36
2022-08-30T20:15:56.342Z,52.40
2022-08-30T20:18:26.043Z,52.40
2022-08-30T20:20:54.320Z,52.24
2022-08-30T20:23:25.925Z,52.16
2022-08-30T20:25:54.564Z,51.99
2022-08-30T20:28:22.424Z,51.48
2022-08-30T20:30:50.404Z,51.53
2022-08-30T20:33:22.728Z,51.24
2022-08-30T20:35:51.671Z,51.80
2022-08-30T20:38:24.142Z,51.54
2022-08-30T20:40:52.652Z,51.20
2022-08-30T20:43:33.726Z,51.46
2022-08-30T20:46:03.786Z,51.13
2022-08-30T20:48:32.820Z,51.63
2022-08-30T20:51:00.615Z,51.77
2022-08-30T20:53:30.327Z,51.77
2022-08-30T20:55:58.030Z,51.76
2022-08-30T20:58:27.898Z,52.09
2022-08-30T21:00:55.954Z,51.90
2022-08-30T21:03:25.968Z,52.16
2022-08-30T21:05:54.926Z,52.18
2022-08-30T21:08:22.899Z,52.06
2022-08-30T21:10:52.297Z,51.71
2022-08-30T21:13:23.338Z,51.64
2022-08-30T21:15:52.448Z,51.66
2022-08-30T21:18:23.942Z,51.46
2022-08-30T21:20:51.665Z,51.40
2022-08-30T21:23:19.481Z,51.09
2022-08-30T21:25:49.219Z,50.86
2022-08-30T21:28:21.430Z,51.21
2022-08-30T21:30:49.531Z,51.28
2022-08-30T21:33:19.711Z,51.64
2022-08-30T21:36:05.410Z,51.41
2022-08-30T21:38:33.165Z,51.58
2022-08-30T21:41:04.910Z,52.06
2022-08-30T21:43:34.450Z,52.40
2022-08-30T21:46:05.575Z,52.53
2022-08-30T21:48:33.786Z,52.38
2022-08-30T21:51:06.611Z,53.00
2022-08-30T21:53:34.514Z,53.10
2022-08-30T21:56:07.604Z,52.72
2022-08-30T21:58:44.775Z,52.83
2022-08-30T22:01:13.107Z,52.69
2022-08-30T22:03:42.710Z,52.37
2022-08-30T22:06:11.136Z,53.17
2022-08-30T22:08:41.389Z,52.55
2022-08-30T22:11:09.611Z,52.67
2022-08-30T22:13:38.809Z,52.92
2022-08-30T22:16:14.914Z,52.78
2022-08-30T22:18:45.070Z,52.33
2022-08-30T22:21:16.952Z,52.37
2022-08-30T22:23:49.927Z,52.19
2022-08-30T22:26:19.231Z,52.01
2022-08-30T22:28:47.321Z,51.88
2022-08-30T22:31:17.446Z,52.05
2022-08-30T22:33:49.157Z,51.72
2022-08-30T22:36:18.313Z,51.80
2022-08-30T22:38:46.069Z,51.64
2022-08-30T22:41:14.644Z,51.52
2022-08-30T22:43:45.591Z,51.70
2022-08-30T22:46:16.205Z,51.83
2022-08-30T22:48:46.430Z,51.79
2022-08-30T22:51:14.734Z,52.01
2022-08-30T22:53:42.771Z,52.30
2022-08-30T22:56:14.044Z,52.22
2022-08-30T22:58:41.929Z,51.89
2022-08-30T23:01:10.610Z,51.89
2022-08-30T23:03:39.574Z,52.24
2022-08-30T23:06:08.872Z,52.66
2022-08-30T23:08:39.253Z,52.75
2022-08-30T23:11:16.055Z,52.53
2022-08-30T23:13:43.914Z,53.34
2022-08-30T23:16:24.067Z,53.38
2022-08-30T23:18:51.840Z,53.19
2022-08-30T23:21:25.098Z,53.25
2022-08-30T23:24:11.292Z,53.23
2022-08-30T23:27:03.286Z,53.33
2022-08-30T23:29:48.523Z,52.75
2022-08-30T23:32:33.793Z,53.07
2022-08-30T23:35:18.955Z,53.16
2022-08-30T23:38:06.692Z,52.93
2022-08-30T23:40:52.324Z,53.21
2022-08-30T23:43:37.610Z,53.13
2022-08-30T23:46:23.137Z,53.14
2022-08-30T23:49:08.416Z,53.00
2022-08-30T23:51:54.195Z,54.09
2022-08-30T23:54:41.356Z,55.87
2022-08-30T23:57:26.203Z,56.38
